El Bolson, Argentina
Current Conditions -  °F | °C
As of 3:00 PM on Sunday 23 Nov 2014 (Local Time) from SAZS Reporting Station
Broken Clouds Broken Clouds  
Wind Chill: 52°   Ceiling: 1800
Heat Index: 52°   Visibility: 6mi
Dew Point: 39°   Wind: 21mph
Humidity: 62%   Direction: 290°WNW
Pressure: 29.8"   Gusts: NA
Location:  41.97°S, 71.52°W
Report Text: SAZS 231800Z 29018KT 9999 BKN018 SCT200 11/04 Q1009
Loading
Personal Weather Stations






























Interactive Weather Map New forecast layout! Learn more

10-Day Weather Forecast

Advertisements
Track Severe Weather on mobile